Time;durP1;ratioP1;P1;durP2;ratioP2;P2;SDS_P1;SDS_P2;PMS_P1;PMS_P2;Temp;Humidity;BMP_temperature;BMP_pressure;BME280_temperature;BME280_humidity;BME280_pressure;Samples;Min_cycle;Max_cycle;Signal;HPM_P1;HPM_P2
2021/05/03 00:01:09;;;;;;;15.40;14.82;;;;;;;;;;5031796;28;20454;-47
2021/05/03 00:03:36;;;;;;;14.73;14.27;;;;;;;;;;5028045;28;20029;-45
2021/05/03 00:06:02;;;;;;;13.77;13.25;;;;;;;;;;5030858;28;20541;-44
2021/05/03 00:08:28;;;;;;;15.63;14.50;;;;;;;;;;5025073;28;20038;-47
2021/05/03 00:10:55;;;;;;;15.38;14.77;;;;;;;;;;5018104;28;20049;-45
2021/05/03 00:13:21;;;;;;;16.45;15.23;;;;;;;;;;5031380;28;20025;-46
2021/05/03 00:15:48;;;;;;;12.90;12.52;;;;;;;;;;5029886;28;20050;-49
2021/05/03 00:18:14;;;;;;;14.82;14.02;;;;;;;;;;5030993;28;20489;-46
2021/05/03 00:20:40;;;;;;;11.00;10.23;;;;;;;;;;5027746;28;20041;-45
2021/05/03 00:23:07;;;;;;;9.88;9.48;;;;;;;;;;5028578;28;20037;-44
2021/05/03 00:25:33;;;;;;;10.85;10.60;;;;;;;;;;5029530;28;20072;-44
2021/05/03 00:27:59;;;;;;;14.73;14.10;;;;;;;;;;5025347;28;20100;-45
2021/05/03 00:30:27;;;;;;;13.50;13.13;;;;;;;;;;5031574;28;20073;-44
2021/05/03 00:32:53;;;;;;;12.10;11.77;;;;;;;;;;5027120;28;20060;-44
2021/05/03 00:35:19;;;;;;;13.45;12.95;;;;;;;;;;5030052;28;20037;-45
2021/05/03 00:37:48;;;;;;;15.00;14.52;;;;;;;;;;5030407;28;20045;-45
2021/05/03 00:40:14;;;;;;;15.68;15.05;;;;;;;;;;5029673;28;20041;-45
2021/05/03 00:42:44;;;;;;;17.65;16.77;;;;;;;;;;5029122;28;20133;-44
2021/05/03 00:45:12;;;;;;;17.67;17.15;;;;;;;;;;5029569;28;20041;-44
2021/05/03 00:47:39;;;;;;;17.63;17.10;;;;;;;;;;5027510;28;20054;-44
2021/05/03 00:50:06;;;;;;;18.98;18.17;;;;;;;;;;5028607;28;20043;-45
2021/05/03 00:52:33;;;;;;;18.13;17.40;;;;;;;;;;5023496;28;20521;-44
2021/05/03 00:54:59;;;;;;;19.73;18.60;;;;;;;;;;5030893;28;20124;-47
2021/05/03 00:57:25;;;;;;;18.92;18.23;;;;;;;;;;5027567;28;20670;-48
2021/05/03 00:59:53;;;;;;;18.23;17.60;;;;;;;;;;5028152;28;20149;-47
2021/05/03 01:02:20;;;;;;;18.77;18.20;;;;;;;;;;5023970;28;20030;-44
2021/05/03 01:04:46;;;;;;;19.55;18.63;;;;;;;;;;5025323;28;20030;-44
2021/05/03 01:07:12;;;;;;;19.35;18.73;;;;;;;;;;5028197;28;20026;-44
2021/05/03 01:09:39;;;;;;;20.45;19.70;;;;;;;;;;5025789;28;20402;-44
2021/05/03 01:12:07;;;;;;;20.33;19.20;;;;;;;;;;5028846;28;20045;-45
2021/05/03 01:14:33;;;;;;;19.90;19.35;;;;;;;;;;5026818;28;20071;-44
2021/05/03 01:16:59;;;;;;;20.67;20.08;;;;;;;;;;5027798;28;20046;-43
2021/05/03 01:19:28;;;;;;;19.52;18.88;;;;;;;;;;5028883;28;20440;-44
2021/05/03 01:21:54;;;;;;;20.35;19.17;;;;;;;;;;5028153;28;20067;-45
2021/05/03 01:24:20;;;;;;;19.70;18.85;;;;;;;;;;5030128;28;20092;-44
2021/05/03 01:26:47;;;;;;;21.20;20.15;;;;;;;;;;5027174;28;20041;-45
2021/05/03 01:29:14;;;;;;;20.90;19.92;;;;;;;;;;5029437;28;20057;-45
2021/05/03 01:31:41;;;;;;;20.80;20.02;;;;;;;;;;5024298;28;20041;-45
2021/05/03 01:34:08;;;;;;;19.75;19.15;;;;;;;;;;5021466;28;20568;-43
2021/05/03 01:36:37;;;;;;;21.00;20.05;;;;;;;;;;5028877;28;20042;-45
2021/05/03 01:39:05;;;;;;;21.02;19.80;;;;;;;;;;5029404;28;20076;-45
2021/05/03 01:41:32;;;;;;;20.20;19.33;;;;;;;;;;5030530;28;20037;-45
2021/05/03 01:43:58;;;;;;;21.48;20.30;;;;;;;;;;5026894;28;20037;-47
2021/05/03 01:46:26;;;;;;;21.85;20.70;;;;;;;;;;5025581;28;20099;-46
2021/05/03 01:48:52;;;;;;;20.30;19.45;;;;;;;;;;5029253;28;20437;-48
2021/05/03 01:51:19;;;;;;;20.17;19.25;;;;;;;;;;5029694;28;20038;-45
2021/05/03 01:53:45;;;;;;;21.83;20.27;;;;;;;;;;5015336;28;20054;-45
2021/05/03 01:56:14;;;;;;;17.33;16.63;;;;;;;;;;5023629;28;20044;-45
2021/05/03 01:58:41;;;;;;;21.27;20.33;;;;;;;;;;5022852;28;20042;-44
2021/05/03 02:01:07;;;;;;;23.00;21.45;;;;;;;;;;5028316;28;20460;-44
2021/05/03 02:03:33;;;;;;;21.45;20.35;;;;;;;;;;5026916;28;20041;-44
2021/05/03 02:06:00;;;;;;;21.73;20.55;;;;;;;;;;5029624;28;20049;-47
2021/05/03 02:08:27;;;;;;;21.70;20.48;;;;;;;;;;5028919;28;20030;-44
2021/05/03 02:10:54;;;;;;;22.33;21.15;;;;;;;;;;5027945;28;20478;-46
2021/05/03 02:13:21;;;;;;;19.75;18.98;;;;;;;;;;5028883;28;20046;-48
2021/05/03 02:15:47;;;;;;;20.40;19.52;;;;;;;;;;5028579;28;20050;-46
2021/05/03 02:18:15;;;;;;;18.65;18.15;;;;;;;;;;5029049;28;20040;-44
2021/05/03 02:20:41;;;;;;;21.85;20.92;;;;;;;;;;5025625;28;20050;-45
2021/05/03 02:23:09;;;;;;;21.05;20.55;;;;;;;;;;5029547;28;20034;-44
2021/05/03 02:25:35;;;;;;;21.35;20.63;;;;;;;;;;5026617;28;20060;-44
2021/05/03 02:28:07;;;;;;;22.27;21.35;;;;;;;;;;5024739;28;20369;-44
2021/05/03 02:30:33;;;;;;;22.23;21.00;;;;;;;;;;5024427;28;20034;-46
2021/05/03 02:33:00;;;;;;;22.73;21.70;;;;;;;;;;5017613;28;20041;-47
2021/05/03 02:35:32;;;;;;;22.88;21.55;;;;;;;;;;5028277;28;20033;-44
2021/05/03 02:38:03;;;;;;;21.08;20.17;;;;;;;;;;5026728;28;20057;-47
2021/05/03 02:40:31;;;;;;;21.83;20.48;;;;;;;;;;5022547;28;20041;-45
2021/05/03 02:42:59;;;;;;;22.52;21.80;;;;;;;;;;5026683;28;20095;-46
2021/05/03 02:45:26;;;;;;;23.25;21.75;;;;;;;;;;5028201;28;20038;-46
2021/05/03 02:47:53;;;;;;;20.80;19.98;;;;;;;;;;5014671;28;20081;-44
2021/05/03 02:50:21;;;;;;;22.88;21.80;;;;;;;;;;5025252;28;20049;-45
2021/05/03 02:52:48;;;;;;;22.17;21.00;;;;;;;;;;5029109;28;20038;-44
2021/05/03 02:55:15;;;;;;;23.20;22.30;;;;;;;;;;5028907;28;20144;-44
2021/05/03 02:57:42;;;;;;;22.63;21.90;;;;;;;;;;5020212;28;20416;-44
2021/05/03 03:00:11;;;;;;;22.83;22.08;;;;;;;;;;5033194;28;20072;-45
2021/05/03 03:02:37;;;;;;;21.92;21.27;;;;;;;;;;5031875;28;20037;-45
2021/05/03 03:05:04;;;;;;;21.75;20.55;;;;;;;;;;5021028;28;20469;-45
2021/05/03 03:07:30;;;;;;;24.67;23.40;;;;;;;;;;5028848;28;20121;-45
2021/05/03 03:09:56;;;;;;;20.48;19.70;;;;;;;;;;5023807;28;20045;-47
2021/05/03 03:12:23;;;;;;;22.15;21.17;;;;;;;;;;5032054;28;20043;-45
2021/05/03 03:14:50;;;;;;;21.45;20.85;;;;;;;;;;5030202;28;20042;-44
2021/05/03 03:17:16;;;;;;;20.67;19.65;;;;;;;;;;5022902;28;20136;-44
2021/05/03 03:19:43;;;;;;;23.10;22.20;;;;;;;;;;5030033;28;20045;-44
2021/05/03 03:22:09;;;;;;;25.30;22.15;;;;;;;;;;5025338;28;20040;-44
2021/05/03 03:24:36;;;;;;;22.65;21.45;;;;;;;;;;5031999;28;20061;-46
2021/05/03 03:27:03;;;;;;;21.60;20.77;;;;;;;;;;5032448;28;20087;-46
2021/05/03 03:29:29;;;;;;;22.50;21.52;;;;;;;;;;5030799;28;20051;-46
2021/05/03 03:31:56;;;;;;;21.90;20.95;;;;;;;;;;5029084;28;20042;-45
2021/05/03 03:34:23;;;;;;;21.98;21.38;;;;;;;;;;5029374;28;20038;-45
2021/05/03 03:36:49;;;;;;;23.65;22.60;;;;;;;;;;5026620;28;20467;-45
2021/05/03 03:39:16;;;;;;;22.15;21.52;;;;;;;;;;5031176;28;20049;-45
2021/05/03 03:41:42;;;;;;;19.60;18.92;;;;;;;;;;5030877;28;20092;-44
2021/05/03 03:44:09;;;;;;;20.88;19.95;;;;;;;;;;5029542;28;20528;-44
2021/05/03 03:46:35;;;;;;;21.38;20.23;;;;;;;;;;5032054;28;20440;-44
2021/05/03 03:49:02;;;;;;;20.73;19.80;;;;;;;;;;5028057;28;20116;-46
2021/05/03 03:51:28;;;;;;;24.02;23.08;;;;;;;;;;5025328;28;20045;-44
2021/05/03 03:53:54;;;;;;;22.58;21.75;;;;;;;;;;5031035;28;20046;-45
2021/05/03 03:56:22;;;;;;;22.50;21.80;;;;;;;;;;5027880;28;20373;-44
2021/05/03 03:58:48;;;;;;;24.02;22.73;;;;;;;;;;5031147;28;20049;-44
2021/05/03 04:01:15;;;;;;;21.75;20.98;;;;;;;;;;5029056;28;20091;-45
2021/05/03 04:03:51;;;;;;;22.15;21.17;;;;;;;;;;5017581;28;20046;-45
2021/05/03 04:06:34;;;;;;;22.30;21.30;;;;;;;;;;5029127;28;20036;-45
2021/05/03 04:09:09;;;;;;;25.42;23.83;;;;;;;;;;5031311;28;20063;-47
2021/05/03 04:11:56;;;;;;;22.90;21.02;;;;;;;;;;5030001;28;20077;-45
2021/05/03 04:25:12;;;;;;;24.83;23.85;;;;;;;;;;5027143;28;20044;-44
2021/05/03 04:27:38;;;;;;;24.60;23.80;;;;;;;;;;5028982;28;20069;-44
2021/05/03 04:30:09;;;;;;;24.33;23.25;;;;;;;;;;5027310;28;20394;-45
2021/05/03 04:32:36;;;;;;;25.15;24.15;;;;;;;;;;5026170;28;20068;-45
2021/05/03 04:35:03;;;;;;;23.83;22.55;;;;;;;;;;5026570;28;20120;-46
2021/05/03 04:37:29;;;;;;;22.83;22.10;;;;;;;;;;5016003;28;20045;-44
2021/05/03 04:39:56;;;;;;;24.55;23.33;;;;;;;;;;5026788;28;21066;-44
2021/05/03 04:42:22;;;;;;;23.33;22.08;;;;;;;;;;5027410;28;20037;-46
2021/05/03 04:44:49;;;;;;;24.00;22.52;;;;;;;;;;5030484;28;20564;-44
2021/05/03 04:47:15;;;;;;;23.25;22.25;;;;;;;;;;5026917;28;20076;-47
2021/05/03 04:49:43;;;;;;;24.67;23.10;;;;;;;;;;5014784;28;20126;-48
2021/05/03 04:52:09;;;;;;;25.42;23.45;;;;;;;;;;5029219;28;20041;-45
2021/05/03 04:54:36;;;;;;;24.05;23.00;;;;;;;;;;5028330;28;20076;-44
2021/05/03 04:57:02;;;;;;;22.75;21.75;;;;;;;;;;5028489;28;20429;-46
2021/05/03 04:59:28;;;;;;;22.80;21.63;;;;;;;;;;5026075;28;20041;-45
2021/05/03 05:01:54;;;;;;;24.88;23.60;;;;;;;;;;5030458;28;20770;-45
2021/05/03 05:04:21;;;;;;;25.17;23.90;;;;;;;;;;5025437;28;20065;-44
2021/05/03 05:06:47;;;;;;;24.77;23.67;;;;;;;;;;5017334;28;20048;-48
2021/05/03 05:09:13;;;;;;;23.95;22.88;;;;;;;;;;5020158;28;20034;-45
2021/05/03 05:11:40;;;;;;;23.52;22.15;;;;;;;;;;5022143;28;20057;-44
2021/05/03 05:14:06;;;;;;;25.67;24.40;;;;;;;;;;5030434;28;20646;-44
2021/05/03 05:16:32;;;;;;;23.65;22.75;;;;;;;;;;5027117;28;20073;-44
2021/05/03 05:18:59;;;;;;;22.10;21.17;;;;;;;;;;5026959;28;20048;-45
2021/05/03 05:21:25;;;;;;;21.35;20.23;;;;;;;;;;5021717;28;20139;-45
2021/05/03 05:23:53;;;;;;;19.33;18.42;;;;;;;;;;5021479;28;20042;-49
2021/05/03 05:26:19;;;;;;;20.73;19.92;;;;;;;;;;5015593;28;20108;-48
2021/05/03 05:28:46;;;;;;;20.58;19.85;;;;;;;;;;5025007;28;20037;-49
2021/05/03 05:31:12;;;;;;;18.02;17.08;;;;;;;;;;5012107;28;20112;-49
2021/05/03 05:33:38;;;;;;;17.38;16.13;;;;;;;;;;5023841;28;20430;-52
2021/05/03 05:36:05;;;;;;;16.42;15.82;;;;;;;;;;5018892;28;20099;-51
2021/05/03 05:38:31;;;;;;;16.17;15.35;;;;;;;;;;5028458;28;20106;-48
2021/05/03 05:40:58;;;;;;;19.55;18.42;;;;;;;;;;5028477;28;20382;-48
2021/05/03 05:43:24;;;;;;;18.10;17.20;;;;;;;;;;5028429;28;20529;-48
2021/05/03 05:45:50;;;;;;;18.10;17.45;;;;;;;;;;5026337;28;20061;-50
2021/05/03 05:48:16;;;;;;;19.10;18.33;;;;;;;;;;5028667;28;20056;-48
2021/05/03 05:50:42;;;;;;;16.15;15.60;;;;;;;;;;5030290;28;20692;-49
2021/05/03 05:53:08;;;;;;;16.60;15.13;;;;;;;;;;5027512;28;20041;-48
2021/05/03 05:55:36;;;;;;;7.95;7.60;;;;;;;;;;5028496;28;21728;-48
2021/05/03 05:58:02;;;;;;;5.88;5.30;;;;;;;;;;5026041;28;20132;-48
2021/05/03 06:00:29;;;;;;;8.77;5.05;;;;;;;;;;5038058;28;20040;-49
2021/05/03 06:02:55;;;;;;;5.70;4.50;;;;;;;;;;5028401;28;20488;-49
2021/05/03 06:05:23;;;;;;;8.35;5.53;;;;;;;;;;5025057;28;20163;-49
2021/05/03 06:07:50;;;;;;;5.20;4.88;;;;;;;;;;5016175;28;20046;-50
2021/05/03 06:10:16;;;;;;;6.43;5.10;;;;;;;;;;5021843;28;20401;-46
2021/05/03 06:12:42;;;;;;;4.88;3.83;;;;;;;;;;5010210;28;20116;-48
2021/05/03 06:15:08;;;;;;;9.73;4.53;;;;;;;;;;5029368;28;20056;-49
2021/05/03 06:17:35;;;;;;;4.28;3.40;;;;;;;;;;5027964;28;20508;-51
2021/05/03 06:20:02;;;;;;;5.80;4.57;;;;;;;;;;5026523;28;20095;-49
2021/05/03 06:22:33;;;;;;;5.10;4.65;;;;;;;;;;5027868;28;20076;-50
2021/05/03 06:25:02;;;;;;;4.40;3.55;;;;;;;;;;5012708;28;20120;-51
2021/05/03 06:27:28;;;;;;;5.10;3.28;;;;;;;;;;5022964;28;20038;-49
2021/05/03 06:29:55;;;;;;;4.30;3.60;;;;;;;;;;5017362;28;20116;-49
2021/05/03 06:32:21;;;;;;;7.70;4.97;;;;;;;;;;5023569;28;20049;-50
2021/05/03 06:34:49;;;;;;;5.90;4.80;;;;;;;;;;5030135;28;20128;-48
2021/05/03 06:37:16;;;;;;;6.63;3.53;;;;;;;;;;5033504;28;20044;-49
2021/05/03 06:39:42;;;;;;;6.93;3.35;;;;;;;;;;5031434;28;20038;-48
2021/05/03 06:42:09;;;;;;;5.88;3.47;;;;;;;;;;5031849;28;20033;-48
2021/05/03 06:44:36;;;;;;;10.82;3.80;;;;;;;;;;5033406;28;20406;-46
2021/05/03 06:47:03;;;;;;;8.98;3.75;;;;;;;;;;5030393;28;20052;-51
2021/05/03 06:49:29;;;;;;;6.05;3.17;;;;;;;;;;5026648;28;20041;-48
2021/05/03 06:51:56;;;;;;;2.40;1.90;;;;;;;;;;5028215;28;20386;-49
2021/05/03 06:54:22;;;;;;;2.38;2.17;;;;;;;;;;5016501;28;20038;-46
2021/05/03 06:56:49;;;;;;;6.03;2.60;;;;;;;;;;5027054;28;20041;-47
2021/05/03 06:59:15;;;;;;;2.83;2.38;;;;;;;;;;5020742;28;20033;-47
2021/05/03 07:01:42;;;;;;;9.43;2.65;;;;;;;;;;5029082;28;20033;-48
2021/05/03 07:04:08;;;;;;;4.55;2.95;;;;;;;;;;5025848;28;20060;-49
2021/05/03 07:06:34;;;;;;;7.88;2.33;;;;;;;;;;5033470;28;20103;-48
2021/05/03 07:09:01;;;;;;;4.88;1.42;;;;;;;;;;5027697;28;20037;-51
2021/05/03 07:11:29;;;;;;;4.85;2.55;;;;;;;;;;5015767;28;20042;-45
2021/05/03 07:13:55;;;;;;;7.25;2.20;;;;;;;;;;5032894;28;20044;-50
2021/05/03 07:16:22;;;;;;;3.92;2.17;;;;;;;;;;5031224;28;20048;-48
2021/05/03 07:18:51;;;;;;;3.00;1.92;;;;;;;;;;5030572;28;20525;-48
2021/05/03 07:21:17;;;;;;;3.13;1.40;;;;;;;;;;5027251;28;20080;-49
2021/05/03 07:23:47;;;;;;;4.55;1.42;;;;;;;;;;5031509;28;20045;-49
2021/05/03 07:26:14;;;;;;;4.68;1.70;;;;;;;;;;5023880;28;20099;-48
2021/05/03 07:28:40;;;;;;;5.38;2.50;;;;;;;;;;5025740;28;20116;-47
2021/05/03 07:31:07;;;;;;;5.13;2.08;;;;;;;;;;5032952;28;20060;-49
2021/05/03 07:33:33;;;;;;;4.70;1.80;;;;;;;;;;5030438;28;20075;-48
2021/05/03 07:36:00;;;;;;;4.38;2.13;;;;;;;;;;5029141;28;20482;-49
2021/05/03 07:38:26;;;;;;;5.22;2.88;;;;;;;;;;5026461;28;20759;-48
2021/05/03 07:40:52;;;;;;;5.88;3.50;;;;;;;;;;5019866;28;20033;-48
2021/05/03 07:43:20;;;;;;;6.10;3.45;;;;;;;;;;5020871;28;20141;-50
2021/05/03 07:45:47;;;;;;;1.50;1.33;;;;;;;;;;5024981;28;20038;-49
2021/05/03 07:48:13;;;;;;;2.03;1.92;;;;;;;;;;5027565;28;20108;-51
2021/05/03 07:50:41;;;;;;;2.72;1.73;;;;;;;;;;5025660;28;20042;-49
2021/05/03 07:53:08;;;;;;;4.60;2.05;;;;;;;;;;5019140;28;20054;-52
2021/05/03 07:55:34;;;;;;;5.03;1.60;;;;;;;;;;5022613;28;20048;-50
2021/05/03 07:58:01;;;;;;;3.70;2.17;;;;;;;;;;5021734;28;20063;-52
2021/05/03 08:00:28;;;;;;;4.88;1.70;;;;;;;;;;5031864;28;20045;-50
2021/05/03 08:02:56;;;;;;;2.58;2.42;;;;;;;;;;5029227;28;20041;-51
2021/05/03 08:05:23;;;;;;;4.07;1.30;;;;;;;;;;5013719;28;20528;-50
2021/05/03 08:07:50;;;;;;;4.22;1.23;;;;;;;;;;5030061;28;20045;-50
2021/05/03 08:10:16;;;;;;;2.15;1.67;;;;;;;;;;5029423;28;20068;-48
2021/05/03 08:12:43;;;;;;;1.67;1.10;;;;;;;;;;5028658;28;20040;-50
2021/05/03 08:15:14;;;;;;;2.45;1.15;;;;;;;;;;5029461;28;20037;-52
2021/05/03 08:17:43;;;;;;;2.85;1.27;;;;;;;;;;5014472;28;20049;-49
2021/05/03 08:20:10;;;;;;;3.95;1.10;;;;;;;;;;5028449;28;20041;-49
2021/05/03 08:22:36;;;;;;;2.47;1.10;;;;;;;;;;5029913;28;20049;-49
2021/05/03 08:25:05;;;;;;;1.55;1.10;;;;;;;;;;5026449;28;20036;-50
2021/05/03 08:27:32;;;;;;;2.65;1.00;;;;;;;;;;5027501;28;20091;-51
2021/05/03 08:29:58;;;;;;;2.05;1.00;;;;;;;;;;5014517;28;20415;-48
2021/05/03 08:32:25;;;;;;;4.05;1.02;;;;;;;;;;5029262;28;20037;-51
2021/05/03 08:34:51;;;;;;;1.65;1.50;;;;;;;;;;5030352;28;20037;-49
2021/05/03 08:37:18;;;;;;;2.20;0.90;;;;;;;;;;5023775;28;20042;-51
2021/05/03 08:39:44;;;;;;;1.92;1.05;;;;;;;;;;5030862;28;20048;-47
2021/05/03 08:42:13;;;;;;;2.38;0.90;;;;;;;;;;5015384;28;20538;-50
2021/05/03 08:44:42;;;;;;;1.33;0.90;;;;;;;;;;5026527;28;20037;-51
2021/05/03 08:47:08;;;;;;;1.50;0.90;;;;;;;;;;5028553;28;20050;-49
2021/05/03 08:49:47;;;;;;;1.45;0.90;;;;;;;;;;5025812;28;20048;-50
2021/05/03 08:52:16;;;;;;;5.25;0.90;;;;;;;;;;5022402;28;20053;-52
2021/05/03 08:54:45;;;;;;;2.95;1.20;;;;;;;;;;5015307;28;20038;-49
2021/05/03 08:57:13;;;;;;;1.00;0.90;;;;;;;;;;5027409;28;20077;-51
2021/05/03 08:59:40;;;;;;;1.45;0.90;;;;;;;;;;5030621;28;20041;-47
2021/05/03 09:02:08;;;;;;;1.98;0.90;;;;;;;;;;5022212;28;20309;-47
2021/05/03 09:04:35;;;;;;;5.28;1.60;;;;;;;;;;5021649;28;20043;-52
2021/05/03 09:07:05;;;;;;;4.93;1.00;;;;;;;;;;5017946;28;20042;-49
2021/05/03 09:09:34;;;;;;;4.80;1.55;;;;;;;;;;5026010;28;20052;-52
2021/05/03 09:12:01;;;;;;;2.63;0.90;;;;;;;;;;5012382;28;20050;-49
2021/05/03 09:14:29;;;;;;;2.65;1.20;;;;;;;;;;5023437;28;20038;-51
2021/05/03 09:16:55;;;;;;;0.93;0.88;;;;;;;;;;5021137;28;20043;-50
2021/05/03 09:19:22;;;;;;;2.88;1.00;;;;;;;;;;5025365;28;20044;-47
2021/05/03 09:21:48;;;;;;;1.63;0.82;;;;;;;;;;5028268;28;20033;-50
2021/05/03 09:24:16;;;;;;;2.83;0.80;;;;;;;;;;5012043;28;20052;-50
2021/05/03 09:26:46;;;;;;;1.00;0.90;;;;;;;;;;5024629;28;20100;-52
2021/05/03 09:29:26;;;;;;;0.80;0.80;;;;;;;;;;5017638;28;20038;-51
2021/05/03 09:31:59;;;;;;;0.80;0.80;;;;;;;;;;5029516;28;20095;-51
2021/05/03 09:34:27;;;;;;;0.80;0.80;;;;;;;;;;5027241;28;20052;-49
2021/05/03 09:36:54;;;;;;;1.95;0.80;;;;;;;;;;5010792;28;20406;-51
2021/05/03 09:39:29;;;;;;;0.80;0.80;;;;;;;;;;5028988;28;20045;-52
2021/05/03 09:41:56;;;;;;;2.35;0.85;;;;;;;;;;5019697;28;20037;-50
2021/05/03 09:44:22;;;;;;;1.30;1.20;;;;;;;;;;5018541;28;20037;-51
2021/05/03 09:46:50;;;;;;;0.80;0.80;;;;;;;;;;5023706;28;20049;-51
2021/05/03 09:49:21;;;;;;;0.77;0.77;;;;;;;;;;5012863;28;20061;-49
2021/05/03 09:51:48;;;;;;;0.80;0.80;;;;;;;;;;5029035;28;20081;-50
2021/05/03 09:54:16;;;;;;;1.25;0.95;;;;;;;;;;5027878;28;20045;-52
2021/05/03 09:57:06;;;;;;;0.88;0.75;;;;;;;;;;5029630;28;20720;-48
2021/05/03 09:59:39;;;;;;;2.03;0.80;;;;;;;;;;5026922;28;20046;-48
2021/05/03 10:02:26;;;;;;;0.80;0.80;;;;;;;;;;5014293;28;20092;-49
2021/05/03 10:05:01;;;;;;;5.55;0.90;;;;;;;;;;5028569;28;20052;-50
2021/05/03 10:07:29;;;;;;;0.80;0.80;;;;;;;;;;5026359;28;20406;-50
2021/05/03 10:10:02;;;;;;;2.53;1.05;;;;;;;;;;5029517;28;20048;-50
2021/05/03 10:12:29;;;;;;;1.75;0.80;;;;;;;;;;5027882;28;20034;-50
2021/05/03 10:14:59;;;;;;;1.15;1.05;;;;;;;;;;5027561;28;20071;-51
2021/05/03 10:17:26;;;;;;;1.65;0.80;;;;;;;;;;5026703;28;20037;-53
2021/05/03 10:19:53;;;;;;;0.70;0.70;;;;;;;;;;5020189;28;20053;-51
2021/05/03 10:22:21;;;;;;;1.00;1.00;;;;;;;;;;5029478;28;20045;-49
2021/05/03 10:24:55;;;;;;;2.30;0.80;;;;;;;;;;5026048;28;20033;-51
2021/05/03 10:27:22;;;;;;;0.80;0.80;;;;;;;;;;5026147;28;20042;-52
2021/05/03 10:30:03;;;;;;;1.20;0.80;;;;;;;;;;5021644;28;20033;-52
2021/05/03 10:32:29;;;;;;;1.45;1.35;;;;;;;;;;5018816;28;20045;-50
2021/05/03 10:34:58;;;;;;;0.82;0.80;;;;;;;;;;5025203;28;20072;-52
2021/05/03 10:37:33;;;;;;;1.55;0.95;;;;;;;;;;5025584;28;20049;-51
2021/05/03 10:40:00;;;;;;;1.00;0.90;;;;;;;;;;5027844;28;20486;-51
2021/05/03 10:42:27;;;;;;;0.80;0.80;;;;;;;;;;5026706;28;20099;-49
2021/05/03 10:45:15;;;;;;;0.70;0.70;;;;;;;;;;5020699;28;20092;-50
2021/05/03 10:47:46;;;;;;;0.80;0.80;;;;;;;;;;5022773;28;20045;-50
2021/05/03 10:50:41;;;;;;;1.40;0.80;;;;;;;;;;5029279;28;20598;-52
2021/05/03 10:53:25;;;;;;;1.02;0.80;;;;;;;;;;5027646;28;20565;-51
2021/05/03 10:56:05;;;;;;;1.60;0.80;;;;;;;;;;5029394;28;20045;-52
2021/05/03 10:58:51;;;;;;;1.35;0.80;;;;;;;;;;5022664;28;20068;-47
2021/05/03 11:01:17;;;;;;;1.48;0.80;;;;;;;;;;5030041;28;20052;-49
2021/05/03 11:03:56;;;;;;;1.15;1.15;;;;;;;;;;5021908;28;20091;-51
2021/05/03 11:06:42;;;;;;;4.85;1.15;;;;;;;;;;5029132;28;20053;-50
2021/05/03 11:09:30;;;;;;;1.00;0.80;;;;;;;;;;5030928;28;20056;-51
2021/05/03 11:11:57;;;;;;;1.35;0.70;;;;;;;;;;5028086;28;20056;-52
2021/05/03 11:14:24;;;;;;;0.70;0.70;;;;;;;;;;5028268;28;20479;-51
2021/05/03 11:16:54;;;;;;;2.70;0.80;;;;;;;;;;5031873;28;20100;-51
2021/05/03 11:19:35;;;;;;;1.27;0.70;;;;;;;;;;5027052;28;20092;-51
2021/05/03 11:22:03;;;;;;;1.15;0.70;;;;;;;;;;5028909;28;20025;-50
2021/05/03 11:24:43;;;;;;;2.13;0.70;;;;;;;;;;5032748;28;20048;-51
2021/05/03 11:27:31;;;;;;;4.32;0.70;;;;;;;;;;5030162;28;20538;-51
2021/05/03 11:30:17;;;;;;;0.82;0.70;;;;;;;;;;5023563;28;20529;-51
2021/05/03 11:32:44;;;;;;;0.70;0.70;;;;;;;;;;5027820;28;20617;-51
2021/05/03 11:37:49;;;;;;;0.95;0.70;;;;;;;;;;5030613;28;20092;-51
2021/05/03 11:45:31;;;;;;;1.83;0.70;;;;;;;;;;5031551;28;20057;-48
2021/05/03 11:47:59;;;;;;;0.70;0.70;;;;;;;;;;5030487;28;20056;-52
2021/05/03 11:50:26;;;;;;;1.98;0.70;;;;;;;;;;5014251;28;20081;-52
2021/05/03 11:52:55;;;;;;;3.17;0.73;;;;;;;;;;5030466;28;20044;-53
2021/05/03 11:55:23;;;;;;;3.45;0.70;;;;;;;;;;5028836;28;20116;-51
2021/05/03 11:57:50;;;;;;;2.63;1.67;;;;;;;;;;5032041;28;20598;-53
2021/05/03 12:00:24;;;;;;;0.60;0.60;;;;;;;;;;5025080;28;20045;-52
2021/05/03 12:03:03;;;;;;;0.70;0.70;;;;;;;;;;5027680;28;20041;-53
2021/05/03 12:05:31;;;;;;;0.60;0.60;;;;;;;;;;5026838;28;20065;-47
2021/05/03 12:07:57;;;;;;;1.20;0.68;;;;;;;;;;5029399;28;20133;-53
2021/05/03 12:10:23;;;;;;;1.10;0.70;;;;;;;;;;5031096;28;20095;-54
2021/05/03 12:12:53;;;;;;;0.90;0.70;;;;;;;;;;5026887;28;20137;-51
2021/05/03 12:15:25;;;;;;;3.05;0.93;;;;;;;;;;5012456;28;20056;-52
2021/05/03 12:17:52;;;;;;;0.70;0.70;;;;;;;;;;5025548;28;20049;-53
2021/05/03 12:20:20;;;;;;;1.48;0.60;;;;;;;;;;5027788;28;20482;-50
2021/05/03 12:22:52;;;;;;;1.77;0.60;;;;;;;;;;5035626;28;20049;-52
2021/05/03 12:25:19;;;;;;;3.72;0.70;;;;;;;;;;5035838;28;20095;-52
2021/05/03 12:27:45;;;;;;;2.33;0.60;;;;;;;;;;5023115;28;20163;-52
2021/05/03 12:30:11;;;;;;;0.60;0.60;;;;;;;;;;5026273;28;20116;-51
2021/05/03 12:32:40;;;;;;;0.95;0.70;;;;;;;;;;5015817;28;20137;-48
2021/05/03 12:35:10;;;;;;;0.50;0.50;;;;;;;;;;5030786;28;20052;-52
2021/05/03 12:37:37;;;;;;;0.70;0.60;;;;;;;;;;5028699;28;20128;-52
2021/05/03 12:40:09;;;;;;;0.60;0.60;;;;;;;;;;5029591;28;20046;-52
2021/05/03 12:42:52;;;;;;;1.08;0.60;;;;;;;;;;5029278;28;20029;-50
2021/05/03 12:45:26;;;;;;;1.88;1.02;;;;;;;;;;5028058;28;20091;-52
2021/05/03 12:50:48;;;;;;;1.23;0.70;;;;;;;;;;5027334;28;20053;-48
2021/05/03 12:53:28;;;;;;;1.08;0.60;;;;;;;;;;5015966;28;20056;-46
2021/05/03 12:56:12;;;;;;;1.05;0.60;;;;;;;;;;5030687;28;20109;-46
2021/05/03 12:58:54;;;;;;;2.08;0.60;;;;;;;;;;5028485;28;20076;-46
2021/05/03 13:01:30;;;;;;;1.63;0.60;;;;;;;;;;5012140;28;20045;-45
2021/05/03 13:09:28;;;;;;;3.65;0.68;;;;;;;;;;5029616;28;20040;-47
2021/05/03 13:28:59;;;;;;;2.15;0.63;;;;;;;;;;5024309;28;20037;-45
2021/05/03 13:31:27;;;;;;;0.85;0.70;;;;;;;;;;5027904;28;20060;-45
2021/05/03 13:33:53;;;;;;;5.18;0.60;;;;;;;;;;5026716;28;20053;-45
2021/05/03 13:36:20;;;;;;;1.98;0.60;;;;;;;;;;5025948;28;20054;-45
2021/05/03 13:38:48;;;;;;;1.10;0.68;;;;;;;;;;5015100;28;20041;-49
2021/05/03 13:41:14;;;;;;;4.13;0.70;;;;;;;;;;5026060;28;20472;-45
2021/05/03 13:43:41;;;;;;;1.55;0.70;;;;;;;;;;5027187;28;20038;-45
2021/05/03 13:46:07;;;;;;;2.20;0.85;;;;;;;;;;5027254;28;20045;-44
2021/05/03 13:48:33;;;;;;;0.70;0.60;;;;;;;;;;5026353;28;20413;-45
2021/05/03 13:51:00;;;;;;;1.17;1.10;;;;;;;;;;5027479;28;20073;-45
2021/05/03 13:53:26;;;;;;;1.65;0.70;;;;;;;;;;5025659;28;20053;-46
2021/05/03 13:55:55;;;;;;;1.65;0.70;;;;;;;;;;5025768;28;20049;-44
2021/05/03 13:58:22;;;;;;;4.13;0.77;;;;;;;;;;5020354;28;20558;-46
2021/05/03 14:00:48;;;;;;;2.30;1.30;;;;;;;;;;5021367;28;20077;-44
2021/05/03 14:03:14;;;;;;;1.95;0.60;;;;;;;;;;5021262;28;20450;-47
2021/05/03 14:05:41;;;;;;;3.80;0.70;;;;;;;;;;5029119;28;20116;-47
2021/05/03 14:08:07;;;;;;;0.63;0.60;;;;;;;;;;5028398;28;20040;-46
2021/05/03 14:10:33;;;;;;;1.67;0.70;;;;;;;;;;5028912;28;20517;-44
2021/05/03 14:13:02;;;;;;;0.60;0.60;;;;;;;;;;5028099;28;20034;-44
2021/05/03 14:15:31;;;;;;;0.90;0.90;;;;;;;;;;5028599;28;20437;-46
2021/05/03 14:17:57;;;;;;;0.63;0.63;;;;;;;;;;5023183;28;20049;-45
2021/05/03 14:20:24;;;;;;;1.10;0.60;;;;;;;;;;5029045;28;20049;-44
2021/05/03 14:22:51;;;;;;;0.70;0.70;;;;;;;;;;5023869;28;20038;-46
2021/05/03 14:25:18;;;;;;;1.48;0.75;;;;;;;;;;5015197;28;20584;-45
2021/05/03 14:27:46;;;;;;;0.60;0.60;;;;;;;;;;5028496;28;20610;-46
2021/05/03 14:30:23;;;;;;;1.42;0.70;;;;;;;;;;5026750;28;20033;-44
2021/05/03 14:33:01;;;;;;;0.60;0.60;;;;;;;;;;5029680;28;20390;-46
2021/05/03 14:35:28;;;;;;;0.88;0.70;;;;;;;;;;5022576;28;20045;-47
2021/05/03 14:37:55;;;;;;;0.80;0.80;;;;;;;;;;5015966;28;20052;-45
2021/05/03 14:40:22;;;;;;;1.48;0.80;;;;;;;;;;5029451;28;20534;-45
2021/05/03 14:42:55;;;;;;;2.38;0.70;;;;;;;;;;5027415;28;20470;-44
2021/05/03 14:45:22;;;;;;;;;;;;;;;;;;5011580;28;20038;-44
2021/05/03 14:53:13;;;;;;;0.88;0.70;;;;;;;;;;5032531;28;20092;-45
2021/05/03 14:55:39;;;;;;;0.70;0.70;;;;;;;;;;5031440;28;20061;-45
2021/05/03 14:58:05;;;;;;;0.70;0.70;;;;;;;;;;5014251;28;20490;-48
2021/05/03 15:00:32;;;;;;;0.80;0.80;;;;;;;;;;5031580;28;20038;-44
2021/05/03 15:02:58;;;;;;;4.60;0.80;;;;;;;;;;5031177;28;20072;-48
2021/05/03 15:05:25;;;;;;;1.15;0.98;;;;;;;;;;5032779;28;20042;-48
2021/05/03 15:07:52;;;;;;;0.70;0.70;;;;;;;;;;5031837;28;20511;-47
2021/05/03 15:10:20;;;;;;;1.65;0.70;;;;;;;;;;5016255;28;20055;-47
2021/05/03 15:12:59;;;;;;;1.65;0.70;;;;;;;;;;5031593;28;20033;-45
2021/05/03 15:15:33;;;;;;;2.25;1.13;;;;;;;;;;5019716;28;20102;-45
2021/05/03 15:18:41;;;;;;;2.10;0.77;;;;;;;;;;5031998;28;20128;-46
2021/05/03 15:23:37;;;;;;;0.80;0.70;;;;;;;;;;5026953;28;20608;-47
2021/05/03 15:26:03;;;;;;;1.02;0.80;;;;;;;;;;5028429;28;20042;-46
2021/05/03 15:31:25;;;;;;;1.13;0.70;;;;;;;;;;5031263;28;20034;-48
2021/05/03 15:33:52;;;;;;;1.95;0.98;;;;;;;;;;5025413;28;20044;-46
2021/05/03 15:36:18;;;;;;;0.80;0.80;;;;;;;;;;5026791;28;20108;-48